sensor_id;sensor_type;location;lat;lon;timestamp;pressure;altitude;pressure_sealevel;temperature;humidity
36242;BME280;22283;42.748;12.732;2022-08-07T00:02:38;97792.22;;;24.67;45.62
36242;BME280;22283;42.748;12.732;2022-08-07T00:07:39;97808.84;;;24.50;46.28
36242;BME280;22283;42.748;12.732;2022-08-07T00:12:40;97802.63;;;24.43;46.81
36242;BME280;22283;42.748;12.732;2022-08-07T00:17:43;97816.34;;;24.42;47.65
36242;BME280;22283;42.748;12.732;2022-08-07T00:22:44;97805.09;;;24.38;47.58
36242;BME280;22283;42.748;12.732;2022-08-07T00:27:44;97811.34;;;24.32;47.09
36242;BME280;22283;42.748;12.732;2022-08-07T00:32:49;97803.00;;;24.27;46.92
36242;BME280;22283;42.748;12.732;2022-08-07T00:37:50;97806.13;;;24.24;47.19
36242;BME280;22283;42.748;12.732;2022-08-07T00:42:51;97789.69;;;24.05;47.40
36242;BME280;22283;42.748;12.732;2022-08-07T00:47:52;97790.50;;;23.93;47.70
36242;BME280;22283;42.748;12.732;2022-08-07T00:52:53;97783.00;;;23.88;47.91
36242;BME280;22283;42.748;12.732;2022-08-07T00:57:54;97775.75;;;23.89;47.81
36242;BME280;22283;42.748;12.732;2022-08-07T01:02:54;97761.81;;;23.92;47.34
36242;BME280;22283;42.748;12.732;2022-08-07T01:07:55;97764.31;;;23.80;48.00
36242;BME280;22283;42.748;12.732;2022-08-07T01:12:56;97758.06;;;23.73;47.99
36242;BME280;22283;42.748;12.732;2022-08-07T01:18:00;97765.91;;;23.68;48.15
36242;BME280;22283;42.748;12.732;2022-08-07T01:23:03;97765.91;;;23.68;48.14
36242;BME280;22283;42.748;12.732;2022-08-07T01:28:05;97766.72;;;23.62;48.40
36242;BME280;22283;42.748;12.732;2022-08-07T01:33:06;97765.00;;;23.47;48.90
36242;BME280;22283;42.748;12.732;2022-08-07T01:38:07;97765.63;;;23.36;48.74
36242;BME280;22283;42.748;12.732;2022-08-07T01:43:10;97757.44;;;23.23;49.12
36242;BME280;22283;42.748;12.732;2022-08-07T01:48:11;97764.28;;;23.19;49.15
36242;BME280;22283;42.748;12.732;2022-08-07T01:53:13;97761.97;;;23.16;49.05
36242;BME280;22283;42.748;12.732;2022-08-07T01:58:19;97763.00;;;23.15;48.90
36242;BME280;22283;42.748;12.732;2022-08-07T02:03:21;97769.06;;;23.17;48.81
36242;BME280;22283;42.748;12.732;2022-08-07T02:08:25;97768.41;;;23.15;48.92
36242;BME280;22283;42.748;12.732;2022-08-07T02:13:29;97778.16;;;23.16;48.77
36242;BME280;22283;42.748;12.732;2022-08-07T02:18:35;97773.16;;;23.06;49.47
36242;BME280;22283;42.748;12.732;2022-08-07T02:23:39;97770.13;;;22.88;49.67
36242;BME280;22283;42.748;12.732;2022-08-07T02:28:41;97776.34;;;22.88;49.73
36242;BME280;22283;42.748;12.732;2022-08-07T02:33:42;97777.53;;;22.79;50.04
36242;BME280;22283;42.748;12.732;2022-08-07T02:38:44;97775.06;;;22.77;50.03
36242;BME280;22283;42.748;12.732;2022-08-07T02:43:48;97780.00;;;22.74;50.67
36242;BME280;22283;42.748;12.732;2022-08-07T02:48:51;97770.44;;;22.71;50.44
36242;BME280;22283;42.748;12.732;2022-08-07T02:53:53;97763.34;;;22.64;50.44
36242;BME280;22283;42.748;12.732;2022-08-07T02:58:59;97761.19;;;22.52;50.72
36242;BME280;22283;42.748;12.732;2022-08-07T03:04:05;97758.63;;;22.44;50.83
36242;BME280;22283;42.748;12.732;2022-08-07T03:09:08;97758.56;;;22.31;51.31
36242;BME280;22283;42.748;12.732;2022-08-07T03:14:09;97764.19;;;22.36;51.37
36242;BME280;22283;42.748;12.732;2022-08-07T03:19:12;97769.56;;;22.36;51.49
36242;BME280;22283;42.748;12.732;2022-08-07T03:24:13;97768.94;;;22.34;51.47
36242;BME280;22283;42.748;12.732;2022-08-07T03:29:13;97764.31;;;22.28;51.67
36242;BME280;22283;42.748;12.732;2022-08-07T03:34:15;97766.41;;;22.26;51.96
36242;BME280;22283;42.748;12.732;2022-08-07T03:39:18;97763.44;;;22.21;52.01
36242;BME280;22283;42.748;12.732;2022-08-07T03:44:20;97765.50;;;22.19;52.35
36242;BME280;22283;42.748;12.732;2022-08-07T03:49:21;97761.16;;;22.18;52.36
36242;BME280;22283;42.748;12.732;2022-08-07T03:54:22;97770.34;;;22.08;52.69
36242;BME280;22283;42.748;12.732;2022-08-07T03:59:26;97776.97;;;22.06;52.66
36242;BME280;22283;42.748;12.732;2022-08-07T04:04:27;97775.88;;;22.00;52.78
36242;BME280;22283;42.748;12.732;2022-08-07T04:09:34;97768.69;;;22.07;52.67
36242;BME280;22283;42.748;12.732;2022-08-07T04:14:38;97774.72;;;22.09;52.59
36242;BME280;22283;42.748;12.732;2022-08-07T04:19:40;97779.25;;;22.09;53.05
36242;BME280;22283;42.748;12.732;2022-08-07T04:24:42;97781.84;;;22.17;52.80
36242;BME280;22283;42.748;12.732;2022-08-07T04:29:46;97792.00;;;22.15;53.14
36242;BME280;22283;42.748;12.732;2022-08-07T04:34:47;97789.94;;;22.17;52.92
36242;BME280;22283;42.748;12.732;2022-08-07T04:39:51;97802.63;;;22.23;52.97
36242;BME280;22283;42.748;12.732;2022-08-07T04:45:00;97818.34;;;22.41;52.68
36242;BME280;22283;42.748;12.732;2022-08-07T04:50:05;97831.03;;;22.75;51.75
36242;BME280;22283;42.748;12.732;2022-08-07T05:00:49;97844.50;;;23.86;48.98
36242;BME280;22283;42.748;12.732;2022-08-07T05:06:13;97867.53;;;24.43;47.77
36242;BME280;22283;42.748;12.732;2022-08-07T05:11:30;97868.31;;;25.10;46.46
36242;BME280;22283;42.748;12.732;2022-08-07T05:16:33;97871.56;;;25.45;45.38
36242;BME280;22283;42.748;12.732;2022-08-07T05:21:42;97867.75;;;25.66;44.93
36242;BME280;22283;42.748;12.732;2022-08-07T05:26:46;97862.38;;;25.60;44.99
36242;BME280;22283;42.748;12.732;2022-08-07T05:31:48;97859.25;;;26.01;45.50
36242;BME280;22283;42.748;12.732;2022-08-07T05:36:54;97865.03;;;26.75;43.20
36242;BME280;22283;42.748;12.732;2022-08-07T05:42:05;97860.03;;;27.40;42.07
36242;BME280;22283;42.748;12.732;2022-08-07T05:47:10;97868.94;;;27.84;41.17
36242;BME280;22283;42.748;12.732;2022-08-07T05:52:11;97864.94;;;27.86;40.97
36242;BME280;22283;42.748;12.732;2022-08-07T05:57:14;97863.88;;;27.51;41.08
36242;BME280;22283;42.748;12.732;2022-08-07T06:02:18;97871.75;;;27.77;41.26
36242;BME280;22283;42.748;12.732;2022-08-07T06:07:19;97872.63;;;28.50;40.99
36242;BME280;22283;42.748;12.732;2022-08-07T06:12:20;97867.00;;;28.75;40.85
36242;BME280;22283;42.748;12.732;2022-08-07T06:17:22;97865.72;;;29.36;39.48
36242;BME280;22283;42.748;12.732;2022-08-07T06:22:24;97868.81;;;29.92;38.08
36242;BME280;22283;42.748;12.732;2022-08-07T06:27:31;97863.09;;;29.93;38.43
36242;BME280;22283;42.748;12.732;2022-08-07T06:32:32;97859.47;;;30.16;39.28
36242;BME280;22283;42.748;12.732;2022-08-07T06:37:33;97858.38;;;30.17;39.35
36242;BME280;22283;42.748;12.732;2022-08-07T06:42:35;97861.25;;;30.39;39.50
36242;BME280;22283;42.748;12.732;2022-08-07T06:47:46;97859.06;;;30.86;38.96
36242;BME280;22283;42.748;12.732;2022-08-07T06:52:53;97863.03;;;31.29;38.23
36242;BME280;22283;42.748;12.732;2022-08-07T06:57:59;97854.81;;;31.29;37.65
36242;BME280;22283;42.748;12.732;2022-08-07T07:03:04;97858.38;;;31.13;38.57
36242;BME280;22283;42.748;12.732;2022-08-07T07:08:07;97852.22;;;31.40;38.60
36242;BME280;22283;42.748;12.732;2022-08-07T07:13:23;97852.22;;;31.62;37.17
36242;BME280;22283;42.748;12.732;2022-08-07T07:18:53;97836.59;;;31.57;37.25
36242;BME280;22283;42.748;12.732;2022-08-07T07:23:56;97840.22;;;31.41;37.40
36242;BME280;22283;42.748;12.732;2022-08-07T07:29:04;97821.06;;;31.24;37.19
36242;BME280;22283;42.748;12.732;2022-08-07T07:34:08;97822.91;;;31.35;37.88
36242;BME280;22283;42.748;12.732;2022-08-07T07:39:10;97823.72;;;31.35;38.50
36242;BME280;22283;42.748;12.732;2022-08-07T07:44:13;97811.28;;;31.45;38.49
36242;BME280;22283;42.748;12.732;2022-08-07T07:49:17;97815.50;;;31.52;37.94
36242;BME280;22283;42.748;12.732;2022-08-07T07:54:19;97817.06;;;31.70;37.47
36242;BME280;22283;42.748;12.732;2022-08-07T07:59:21;97807.66;;;31.61;37.48
36242;BME280;22283;42.748;12.732;2022-08-07T08:04:23;97805.59;;;31.51;37.73
36242;BME280;22283;42.748;12.732;2022-08-07T08:09:26;97804.47;;;31.69;37.81
36242;BME280;22283;42.748;12.732;2022-08-07T08:14:29;97804.03;;;31.33;38.55
36242;BME280;22283;42.748;12.732;2022-08-07T08:19:31;97802.13;;;31.56;38.45
36242;BME280;22283;42.748;12.732;2022-08-07T08:24:41;97804.16;;;31.88;37.77
36242;BME280;22283;42.748;12.732;2022-08-07T08:30:05;97793.81;;;31.95;37.91
36242;BME280;22283;42.748;12.732;2022-08-07T08:35:11;97800.34;;;31.89;37.52
36242;BME280;22283;42.748;12.732;2022-08-07T08:40:21;97783.25;;;32.03;37.64
36242;BME280;22283;42.748;12.732;2022-08-07T08:45:47;97780.16;;;32.27;37.77
36242;BME280;22283;42.748;12.732;2022-08-07T08:50:57;97785.63;;;32.54;37.00
36242;BME280;22283;42.748;12.732;2022-08-07T08:56:11;97781.31;;;32.63;36.15
36242;BME280;22283;42.748;12.732;2022-08-07T09:06:51;97783.78;;;33.02;35.54
36242;BME280;22283;42.748;12.732;2022-08-07T09:17:24;97775.00;;;33.58;33.94
36242;BME280;22283;42.748;12.732;2022-08-07T09:22:53;97775.34;;;33.66;33.50
36242;BME280;22283;42.748;12.732;2022-08-07T09:28:04;97760.78;;;33.66;33.64
36242;BME280;22283;42.748;12.732;2022-08-07T09:38:37;97747.94;;;33.92;32.45
36242;BME280;22283;42.748;12.732;2022-08-07T09:44:04;97749.09;;;34.11;32.81
36242;BME280;22283;42.748;12.732;2022-08-07T09:54:37;97738.09;;;34.32;31.46
36242;BME280;22283;42.748;12.732;2022-08-07T10:11:10;97721.59;;;34.83;31.69
36242;BME280;22283;42.748;12.732;2022-08-07T10:43:28;97673.28;;;36.49;28.22
36242;BME280;22283;42.748;12.732;2022-08-07T10:53:46;97658.25;;;36.36;27.82
36242;BME280;22283;42.748;12.732;2022-08-07T10:58:58;97652.97;;;36.11;28.31
36242;BME280;22283;42.748;12.732;2022-08-07T11:04:11;97643.59;;;35.78;28.75
36242;BME280;22283;42.748;12.732;2022-08-07T11:09:22;97630.63;;;36.17;28.30
36242;BME280;22283;42.748;12.732;2022-08-07T11:14:45;97612.38;;;36.75;27.92
36242;BME280;22283;42.748;12.732;2022-08-07T11:19:58;97612.41;;;37.17;27.83
36242;BME280;22283;42.748;12.732;2022-08-07T11:25:08;97621.78;;;36.20;28.91
36242;BME280;22283;42.748;12.732;2022-08-07T11:30:14;97616.63;;;35.80;30.59
36242;BME280;22283;42.748;12.732;2022-08-07T11:35:19;97607.88;;;35.28;30.68
36242;BME280;22283;42.748;12.732;2022-08-07T11:51:45;97649.66;;;34.55;30.39
36242;BME280;22283;42.748;12.732;2022-08-07T12:02:38;97629.88;;;31.56;34.85
36242;BME280;22283;42.748;12.732;2022-08-07T12:07:51;97637.34;;;31.66;34.56
36242;BME280;22283;42.748;12.732;2022-08-07T12:13:02;97634.28;;;31.89;35.28
36242;BME280;22283;42.748;12.732;2022-08-07T12:18:12;97627.22;;;31.66;37.65
36242;BME280;22283;42.748;12.732;2022-08-07T12:23:37;97655.50;;;30.79;40.50
36242;BME280;22283;42.748;12.732;2022-08-07T12:28:57;97649.63;;;29.64;43.01
36242;BME280;22283;42.748;12.732;2022-08-07T12:34:00;97633.84;;;29.37;42.90
36242;BME280;22283;42.748;12.732;2022-08-07T12:39:04;97635.00;;;29.41;43.42
36242;BME280;22283;42.748;12.732;2022-08-07T12:44:08;97637.31;;;29.50;44.06
36242;BME280;22283;42.748;12.732;2022-08-07T12:49:20;97647.47;;;29.37;43.83
36242;BME280;22283;42.748;12.732;2022-08-07T12:54:30;97625.59;;;29.32;43.67
36242;BME280;22283;42.748;12.732;2022-08-07T12:59:34;97614.38;;;29.46;42.33
36242;BME280;22283;42.748;12.732;2022-08-07T13:15:22;97639.19;;;30.28;42.42
36242;BME280;22283;42.748;12.732;2022-08-07T13:20:34;97644.59;;;30.62;43.22
36242;BME280;22283;42.748;12.732;2022-08-07T13:25:47;97628.00;;;30.85;43.70
36242;BME280;22283;42.748;12.732;2022-08-07T13:31:09;97645.63;;;31.00;42.74
36242;BME280;22283;42.748;12.732;2022-08-07T13:36:18;97633.88;;;30.99;42.56
36242;BME280;22283;42.748;12.732;2022-08-07T13:41:53;97602.72;;;30.73;42.82
36242;BME280;22283;42.748;12.732;2022-08-07T13:46:58;97642.97;;;30.61;42.57
36242;BME280;22283;42.748;12.732;2022-08-07T13:52:03;97611.03;;;30.45;42.67
36242;BME280;22283;42.748;12.732;2022-08-07T13:57:06;97611.19;;;30.16;43.22
36242;BME280;22283;42.748;12.732;2022-08-07T14:02:20;97607.47;;;29.88;43.80
36242;BME280;22283;42.748;12.732;2022-08-07T14:07:27;97622.13;;;29.82;43.84
36242;BME280;22283;42.748;12.732;2022-08-07T14:17:42;97620.22;;;29.83;44.21
36242;BME280;22283;42.748;12.732;2022-08-07T14:22:50;97633.41;;;30.08;43.90
36242;BME280;22283;42.748;12.732;2022-08-07T14:27:54;97621.97;;;30.45;41.74
36242;BME280;22283;42.748;12.732;2022-08-07T14:32:59;97633.91;;;30.38;40.34
36242;BME280;22283;42.748;12.732;2022-08-07T14:38:05;97618.50;;;30.49;39.25
36242;BME280;22283;42.748;12.732;2022-08-07T14:43:09;97619.53;;;30.87;36.99
36242;BME280;22283;42.748;12.732;2022-08-07T14:48:13;97611.13;;;30.89;36.46
36242;BME280;22283;42.748;12.732;2022-08-07T14:53:21;97606.03;;;30.75;36.11
36242;BME280;22283;42.748;12.732;2022-08-07T14:58:31;97632.44;;;30.92;35.99
36242;BME280;22283;42.748;12.732;2022-08-07T15:03:38;97650.09;;;31.06;35.53
36242;BME280;22283;42.748;12.732;2022-08-07T15:08:44;97664.31;;;31.08;35.59
36242;BME280;22283;42.748;12.732;2022-08-07T15:13:56;97664.31;;;30.86;35.95
36242;BME280;22283;42.748;12.732;2022-08-07T15:19:00;97684.22;;;30.81;36.89
36242;BME280;22283;42.748;12.732;2022-08-07T15:24:17;97683.19;;;30.88;36.92
36242;BME280;22283;42.748;12.732;2022-08-07T15:29:20;97695.69;;;30.83;37.12
36242;BME280;22283;42.748;12.732;2022-08-07T15:34:25;97728.91;;;30.75;37.92
36242;BME280;22283;42.748;12.732;2022-08-07T15:39:26;97729.56;;;30.49;38.32
36242;BME280;22283;42.748;12.732;2022-08-07T15:44:42;97751.34;;;29.81;40.32
36242;BME280;22283;42.748;12.732;2022-08-07T15:49:49;97754.56;;;29.38;41.74
36242;BME280;22283;42.748;12.732;2022-08-07T15:54:53;97795.63;;;28.96;43.05
36242;BME280;22283;42.748;12.732;2022-08-07T15:59:56;97797.25;;;28.62;43.61
36242;BME280;22283;42.748;12.732;2022-08-07T16:05:05;97781.47;;;28.29;44.74
36242;BME280;22283;42.748;12.732;2022-08-07T16:10:13;97782.47;;;27.92;45.93
36242;BME280;22283;42.748;12.732;2022-08-07T16:20:46;97799.72;;;27.68;46.58
36242;BME280;22283;42.748;12.732;2022-08-07T16:25:58;97814.69;;;27.40;47.35
36242;BME280;22283;42.748;12.732;2022-08-07T16:41:48;97812.66;;;26.74;49.55
36242;BME280;22283;42.748;12.732;2022-08-07T16:47:24;97827.94;;;26.68;49.76
36242;BME280;22283;42.748;12.732;2022-08-07T16:59:06;97806.22;;;26.68;50.36
36242;BME280;22283;42.748;12.732;2022-08-07T17:03:46;97794.72;;;26.73;50.43
36242;BME280;22283;42.748;12.732;2022-08-07T17:08:58;97782.66;;;26.69;50.68
36242;BME280;22283;42.748;12.732;2022-08-07T17:14:06;97767.38;;;26.50;51.63
36242;BME280;22283;42.748;12.732;2022-08-07T17:19:21;97757.22;;;26.38;52.24
36242;BME280;22283;42.748;12.732;2022-08-07T17:29:41;97747.59;;;26.42;52.23
36242;BME280;22283;42.748;12.732;2022-08-07T17:34:54;97738.75;;;26.54;52.27
36242;BME280;22283;42.748;12.732;2022-08-07T17:40:22;97741.19;;;26.62;51.93
36242;BME280;22283;42.748;12.732;2022-08-07T17:45:40;97739.59;;;26.54;52.01
36242;BME280;22283;42.748;12.732;2022-08-07T17:50:58;97757.06;;;26.33;53.15
36242;BME280;22283;42.748;12.732;2022-08-07T17:56:07;97750.69;;;26.21;52.81
36242;BME280;22283;42.748;12.732;2022-08-07T18:01:13;97729.88;;;26.15;53.07
36242;BME280;22283;42.748;12.732;2022-08-07T18:06:25;97728.41;;;26.19;52.99
36242;BME280;22283;42.748;12.732;2022-08-07T18:11:45;97722.59;;;26.15;52.99
36242;BME280;22283;42.748;12.732;2022-08-07T18:16:53;97719.47;;;26.12;52.93
36242;BME280;22283;42.748;12.732;2022-08-07T18:22:07;97709.47;;;26.12;53.03
36242;BME280;22283;42.748;12.732;2022-08-07T18:27:23;97712.84;;;26.08;53.05
36242;BME280;22283;42.748;12.732;2022-08-07T18:32:45;97727.66;;;25.80;53.94
36242;BME280;22283;42.748;12.732;2022-08-07T18:38:08;97722.81;;;25.50;54.96
36242;BME280;22283;42.748;12.732;2022-08-07T18:48:43;97744.59;;;25.24;54.84
36242;BME280;22283;42.748;12.732;2022-08-07T18:54:13;97762.56;;;25.18;55.34
36242;BME280;22283;42.748;12.732;2022-08-07T18:59:32;97772.53;;;25.18;54.51
36242;BME280;22283;42.748;12.732;2022-08-07T19:10:00;97801.69;;;25.16;53.26
36242;BME280;22283;42.748;12.732;2022-08-07T19:26:25;97806.06;;;25.62;46.15
36242;BME280;22283;42.748;12.732;2022-08-07T19:31:32;97811.19;;;25.90;45.14
36242;BME280;22283;42.748;12.732;2022-08-07T19:36:40;97810.97;;;25.91;45.79
36242;BME280;22283;42.748;12.732;2022-08-07T19:41:45;97818.53;;;25.76;47.95
36242;BME280;22283;42.748;12.732;2022-08-07T19:46:51;97833.63;;;25.59;49.01
36242;BME280;22283;42.748;12.732;2022-08-07T19:51:55;97832.66;;;25.40;50.15
36242;BME280;22283;42.748;12.732;2022-08-07T19:56:59;97834.19;;;25.22;50.00
36242;BME280;22283;42.748;12.732;2022-08-07T20:02:03;97836.69;;;24.97;50.02
36242;BME280;22283;42.748;12.732;2022-08-07T20:07:09;97852.53;;;24.81;47.65
36242;BME280;22283;42.748;12.732;2022-08-07T20:12:13;97841.28;;;24.77;47.94
36242;BME280;22283;42.748;12.732;2022-08-07T20:17:17;97850.44;;;24.69;48.01
36242;BME280;22283;42.748;12.732;2022-08-07T20:22:22;97841.50;;;24.62;47.74
36242;BME280;22283;42.748;12.732;2022-08-07T20:27:26;97842.56;;;24.61;47.78
36242;BME280;22283;42.748;12.732;2022-08-07T20:32:36;97824.66;;;24.53;48.20
36242;BME280;22283;42.748;12.732;2022-08-07T20:37:41;97835.47;;;24.53;47.88
36242;BME280;22283;42.748;12.732;2022-08-07T20:42:49;97835.50;;;24.60;47.50
36242;BME280;22283;42.748;12.732;2022-08-07T20:47:52;97834.44;;;24.54;47.79
36242;BME280;22283;42.748;12.732;2022-08-07T20:52:55;97838.81;;;24.56;48.62
36242;BME280;22283;42.748;12.732;2022-08-07T20:58:00;97845.88;;;24.50;48.65
36242;BME280;22283;42.748;12.732;2022-08-07T21:03:02;97843.59;;;24.40;48.87
36242;BME280;22283;42.748;12.732;2022-08-07T21:08:20;97847.88;;;24.15;50.51
36242;BME280;22283;42.748;12.732;2022-08-07T21:13:23;97852.88;;;24.04;50.53
36242;BME280;22283;42.748;12.732;2022-08-07T21:18:26;97860.75;;;23.99;49.75
36242;BME280;22283;42.748;12.732;2022-08-07T21:23:41;97851.56;;;23.87;50.32
36242;BME280;22283;42.748;12.732;2022-08-07T21:28:48;97847.19;;;23.73;50.62
36242;BME280;22283;42.748;12.732;2022-08-07T21:34:02;97843.41;;;23.67;50.37
36242;BME280;22283;42.748;12.732;2022-08-07T21:39:27;97848.94;;;23.52;50.42
36242;BME280;22283;42.748;12.732;2022-08-07T21:44:58;97844.28;;;23.40;50.43
36242;BME280;22283;42.748;12.732;2022-08-07T21:50:07;97849.84;;;23.25;50.91
36242;BME280;22283;42.748;12.732;2022-08-07T21:55:17;97857.91;;;23.18;50.82
36242;BME280;22283;42.748;12.732;2022-08-07T22:00:22;97853.28;;;23.12;50.98
36242;BME280;22283;42.748;12.732;2022-08-07T22:05:25;97856.44;;;23.16;51.04
36242;BME280;22283;42.748;12.732;2022-08-07T22:10:29;97862.25;;;23.13;50.94
36242;BME280;22283;42.748;12.732;2022-08-07T22:16:01;97852.91;;;23.15;51.00
36242;BME280;22283;42.748;12.732;2022-08-07T22:21:20;97860.72;;;23.03;51.98
36242;BME280;22283;42.748;12.732;2022-08-07T22:26:38;97861.06;;;22.94;52.24
36242;BME280;22283;42.748;12.732;2022-08-07T22:32:06;97863.13;;;22.92;52.92
36242;BME280;22283;42.748;12.732;2022-08-07T22:42:21;97866.78;;;22.84;51.72
36242;BME280;22283;42.748;12.732;2022-08-07T23:03:53;97881.66;;;22.52;52.10
36242;BME280;22283;42.748;12.732;2022-08-07T23:20:07;97873.53;;;22.24;52.47
36242;BME280;22283;42.748;12.732;2022-08-07T23:25:36;97872.91;;;22.22;52.66
36242;BME280;22283;42.748;12.732;2022-08-07T23:42:08;97874.13;;;22.04;52.09
36242;BME280;22283;42.748;12.732;2022-08-07T23:47:24;97875.28;;;21.95;52.20
36242;BME280;22283;42.748;12.732;2022-08-07T23:52:40;97878.09;;;21.87;52.65
36242;BME280;22283;42.748;12.732;2022-08-07T23:57:46;97878.22;;;21.79;53.34
